createdAt,value
2022-12-23T00:00:09.153Z,1.53
2022-12-23T00:02:37.465Z,1.42
2022-12-23T00:05:04.568Z,1.39
2022-12-23T00:07:31.459Z,1.47
2022-12-23T00:09:58.148Z,1.52
2022-12-23T00:12:43.216Z,1.44
2022-12-23T00:15:10.632Z,1.55
2022-12-23T00:17:40.617Z,1.41
2022-12-23T00:20:08.066Z,1.37
2022-12-23T00:22:53.178Z,1.80
2022-12-23T00:25:19.641Z,1.69
2022-12-23T00:28:01.231Z,1.66
2022-12-23T00:30:28.304Z,1.75
2022-12-23T00:32:54.748Z,1.77
2022-12-23T00:35:21.192Z,1.77
2022-12-23T00:37:47.879Z,1.93
2022-12-23T00:40:33.506Z,2.15
2022-12-23T00:43:00.862Z,1.92
2022-12-23T00:45:27.371Z,1.72
2022-12-23T00:48:12.532Z,1.72
2022-12-23T00:50:39.548Z,2.02
2022-12-23T00:53:06.381Z,1.79
2022-12-23T00:55:32.913Z,1.88
2022-12-23T00:57:59.424Z,1.92
2022-12-23T01:00:44.533Z,1.72
2022-12-23T01:03:30.737Z,1.73
2022-12-23T01:05:58.599Z,1.64
2022-12-23T01:08:25.303Z,1.78
2022-12-23T01:10:51.965Z,2.21
2022-12-23T01:13:18.779Z,3.11
2022-12-23T01:15:45.304Z,2.50
2022-12-23T01:18:11.806Z,2.04
2022-12-23T01:20:38.932Z,1.94
2022-12-23T01:23:05.480Z,2.17
2022-12-23T01:25:32.177Z,1.98
2022-12-23T01:27:58.771Z,1.89
2022-12-23T01:30:25.267Z,1.92
2022-12-23T01:32:51.793Z,2.02
2022-12-23T01:35:18.311Z,1.96
2022-12-23T01:37:44.766Z,2.45
2022-12-23T01:40:11.301Z,2.06
2022-12-23T01:42:43.858Z,2.10
2022-12-23T01:45:13.175Z,1.86
2022-12-23T01:47:39.702Z,1.93
2022-12-23T01:50:08.602Z,1.84
2022-12-23T01:52:38.508Z,1.79
2022-12-23T01:55:05.283Z,1.71
2022-12-23T01:57:32.006Z,1.73
2022-12-23T02:00:17.107Z,1.69
2022-12-23T02:03:03.136Z,1.68
2022-12-23T02:05:29.814Z,1.68
2022-12-23T02:08:15.048Z,1.61
2022-12-23T02:10:53.682Z,1.71
2022-12-23T02:13:34.780Z,1.69
2022-12-23T02:16:16.801Z,1.73
2022-12-23T02:18:43.302Z,1.64
2022-12-23T02:21:28.733Z,1.67
2022-12-23T02:24:01.333Z,1.81
2022-12-23T02:26:30.595Z,1.70
2022-12-23T02:29:00.131Z,1.67
2022-12-23T02:31:34.275Z,1.54
2022-12-23T02:34:03.829Z,1.68
2022-12-23T02:36:53.536Z,1.63
2022-12-23T02:39:58.563Z,1.77
2022-12-23T02:42:43.586Z,1.76
2022-12-23T02:45:18.892Z,2.31
2022-12-23T02:47:52.572Z,1.81
2022-12-23T02:50:21.401Z,1.61
2022-12-23T02:52:49.781Z,1.58
2022-12-23T02:55:20.302Z,1.56
2022-12-23T02:57:48.963Z,1.74
2022-12-23T03:00:16.111Z,1.66
2022-12-23T03:02:43.315Z,1.73
2022-12-23T03:05:25.242Z,2.27
2022-12-23T03:07:52.920Z,2.21
2022-12-23T03:10:29.575Z,2.07
2022-12-23T03:13:03.942Z,2.18
2022-12-23T03:15:49.173Z,2.19
2022-12-23T03:18:43.498Z,2.25
2022-12-23T03:21:12.776Z,2.23
2022-12-23T03:23:43.517Z,2.14
2022-12-23T03:26:21.999Z,2.15
2022-12-23T03:28:53.907Z,2.14
2022-12-23T03:31:24.187Z,1.86
2022-12-23T03:33:58.033Z,1.99
2022-12-23T03:36:28.483Z,2.00
2022-12-23T03:38:55.979Z,1.93
2022-12-23T03:41:28.920Z,2.05
2022-12-23T03:43:57.828Z,2.09
2022-12-23T03:46:34.382Z,1.99
2022-12-23T03:49:05.985Z,2.57
2022-12-23T03:51:39.604Z,2.39
2022-12-23T03:54:15.388Z,2.11
2022-12-23T03:56:45.680Z,2.26
2022-12-23T03:59:16.838Z,2.32
2022-12-23T04:01:56.570Z,2.34
2022-12-23T04:04:42.001Z,2.22
2022-12-23T04:07:21.247Z,2.28
2022-12-23T04:09:48.064Z,2.21
2022-12-23T04:12:15.169Z,2.36
2022-12-23T04:14:48.840Z,2.43
2022-12-23T04:17:16.074Z,2.51
2022-12-23T04:19:45.265Z,2.37
2022-12-23T04:22:12.679Z,2.13
2022-12-23T04:24:39.360Z,2.16
2022-12-23T04:27:06.457Z,2.29
2022-12-23T04:29:33.028Z,2.39
2022-12-23T04:31:59.595Z,2.48
2022-12-23T04:34:26.203Z,2.39
2022-12-23T04:36:52.668Z,2.53
2022-12-23T04:39:19.199Z,3.37
2022-12-23T04:41:45.638Z,2.68
2022-12-23T04:44:12.137Z,2.70
2022-12-23T04:46:38.664Z,2.37
2022-12-23T04:49:05.152Z,2.42
2022-12-23T04:51:31.629Z,2.57
2022-12-23T04:53:58.073Z,2.79
2022-12-23T04:56:24.554Z,2.71
2022-12-23T04:58:51.038Z,2.81
2022-12-23T05:01:17.583Z,2.89
2022-12-23T05:03:44.196Z,3.02
2022-12-23T05:06:10.655Z,3.48
2022-12-23T05:08:37.176Z,3.86
2022-12-23T05:11:03.984Z,4.04
2022-12-23T05:13:30.461Z,3.72
2022-12-23T05:15:56.941Z,3.59
2022-12-23T05:18:23.486Z,3.44
2022-12-23T05:20:50.011Z,3.39
2022-12-23T05:23:16.459Z,3.34
2022-12-23T05:25:42.978Z,3.40
2022-12-23T05:28:09.561Z,3.49
2022-12-23T05:30:36.448Z,3.52
2022-12-23T05:33:02.971Z,3.55
2022-12-23T05:35:29.434Z,3.53
2022-12-23T05:37:57.619Z,3.52
2022-12-23T05:40:29.302Z,3.45
2022-12-23T05:42:59.771Z,3.56
2022-12-23T05:45:26.260Z,3.72
2022-12-23T05:47:52.752Z,3.61
2022-12-23T05:50:19.165Z,3.47
2022-12-23T05:52:48.463Z,3.26
2022-12-23T05:55:14.952Z,3.15
2022-12-23T05:57:41.378Z,2.96
2022-12-23T06:00:08.211Z,2.93
2022-12-23T06:02:38.938Z,3.51
2022-12-23T06:05:05.828Z,3.06
2022-12-23T06:07:32.341Z,3.14
2022-12-23T06:09:58.808Z,3.13
2022-12-23T06:12:25.264Z,3.07
2022-12-23T06:14:51.961Z,3.00
2022-12-23T06:17:18.436Z,2.96
2022-12-23T06:19:44.877Z,2.77
2022-12-23T06:22:11.307Z,2.93
2022-12-23T06:24:37.734Z,2.78
2022-12-23T06:27:04.320Z,2.66
2022-12-23T06:29:30.764Z,2.62
2022-12-23T06:31:57.371Z,2.52
2022-12-23T06:34:23.893Z,2.53
2022-12-23T06:36:50.490Z,2.40
2022-12-23T06:39:16.958Z,2.51
2022-12-23T06:41:43.386Z,2.62
2022-12-23T06:44:10.150Z,3.05
2022-12-23T06:46:36.645Z,2.89
2022-12-23T06:49:09.042Z,2.58
2022-12-23T06:51:39.155Z,2.64
2022-12-23T06:54:05.610Z,2.75
2022-12-23T06:56:33.321Z,2.70
2022-12-23T06:58:59.841Z,2.65
2022-12-23T07:01:26.480Z,2.66
2022-12-23T07:03:53.199Z,2.69
2022-12-23T07:06:19.690Z,2.47
2022-12-23T07:08:46.164Z,2.60
2022-12-23T07:11:12.633Z,2.59
2022-12-23T07:13:39.134Z,2.81
2022-12-23T07:16:06.721Z,2.60
2022-12-23T07:18:33.226Z,2.56
2022-12-23T07:21:00.453Z,2.44
2022-12-23T07:23:26.930Z,2.35
2022-12-23T07:25:53.430Z,2.37
2022-12-23T07:28:19.880Z,2.39
2022-12-23T07:30:46.482Z,2.59
2022-12-23T07:33:12.918Z,2.56
2022-12-23T07:35:39.486Z,2.82
2022-12-23T07:38:05.992Z,2.64
2022-12-23T07:40:32.780Z,2.96
2022-12-23T07:42:59.789Z,3.84
2022-12-23T07:45:27.217Z,4.18
2022-12-23T07:47:54.695Z,4.58
2022-12-23T07:50:21.631Z,4.36
2022-12-23T07:52:48.235Z,5.58
2022-12-23T07:55:15.151Z,5.30
2022-12-23T07:57:41.712Z,5.16
2022-12-23T08:00:09.505Z,5.53
2022-12-23T08:02:42.282Z,6.52
2022-12-23T08:05:09.952Z,6.73
2022-12-23T08:07:36.457Z,7.27
2022-12-23T08:10:03.470Z,6.28
2022-12-23T08:12:29.943Z,5.89
2022-12-23T08:14:56.372Z,6.08
2022-12-23T08:17:25.967Z,6.10
2022-12-23T08:19:52.442Z,7.13
2022-12-23T08:22:18.935Z,6.79
2022-12-23T08:24:45.420Z,7.56
2022-12-23T08:27:11.934Z,6.41
2022-12-23T08:29:41.879Z,6.25
2022-12-23T08:32:08.868Z,6.87
2022-12-23T08:34:35.773Z,6.84
2022-12-23T08:37:02.288Z,6.77
2022-12-23T08:39:28.932Z,6.99
2022-12-23T08:41:55.376Z,6.93
2022-12-23T08:44:22.257Z,7.71
2022-12-23T08:46:48.859Z,7.45
2022-12-23T08:49:15.475Z,7.40
2022-12-23T08:51:42.573Z,8.23
2022-12-23T08:54:10.238Z,8.57
2022-12-23T08:56:39.330Z,8.53
2022-12-23T08:59:06.140Z,8.99
2022-12-23T09:01:33.464Z,8.49
2022-12-23T09:04:04.300Z,8.57
2022-12-23T09:06:34.069Z,8.05
2022-12-23T09:09:00.620Z,8.64
2022-12-23T09:11:28.347Z,8.50
2022-12-23T09:13:55.986Z,9.14
2022-12-23T09:16:22.618Z,8.96
2022-12-23T09:18:49.243Z,9.25
2022-12-23T09:21:17.923Z,8.38
2022-12-23T09:23:44.450Z,8.72
2022-12-23T09:26:11.297Z,9.30
2022-12-23T09:28:39.489Z,8.72
2022-12-23T09:31:07.716Z,9.10
2022-12-23T09:33:34.235Z,9.60
2022-12-23T09:36:01.715Z,9.55
2022-12-23T09:38:28.164Z,10.16
2022-12-23T09:41:01.251Z,9.99
2022-12-23T09:43:36.967Z,10.01
2022-12-23T09:46:17.791Z,9.90
2022-12-23T09:49:04.836Z,10.37
2022-12-23T09:51:33.011Z,10.60
2022-12-23T09:54:03.784Z,10.24
2022-12-23T09:56:33.268Z,10.69
2022-12-23T09:59:14.803Z,10.67
2022-12-23T10:01:47.069Z,9.91
2022-12-23T10:04:16.753Z,9.65
2022-12-23T10:06:45.443Z,10.65
2022-12-23T10:09:13.856Z,11.04
2022-12-23T10:11:42.676Z,10.68
2022-12-23T10:14:12.152Z,11.09
2022-12-23T10:16:41.144Z,11.09
2022-12-23T10:19:12.702Z,11.54
2022-12-23T10:21:47.455Z,11.76
2022-12-23T10:24:17.176Z,12.12
2022-12-23T10:26:51.803Z,11.89
2022-12-23T10:29:23.327Z,12.34
2022-12-23T10:32:08.441Z,11.84
2022-12-23T10:34:48.992Z,11.44
2022-12-23T10:37:26.480Z,11.79
2022-12-23T10:40:11.888Z,11.73
2022-12-23T10:42:44.120Z,12.36
2022-12-23T10:45:33.713Z,12.47
2022-12-23T10:48:00.183Z,12.79
2022-12-23T10:50:35.977Z,12.48
2022-12-23T10:53:04.801Z,14.09
2022-12-23T10:55:34.388Z,13.12
2022-12-23T10:58:08.834Z,13.85
2022-12-23T11:00:38.051Z,12.82
2022-12-23T11:03:13.541Z,13.90
2022-12-23T11:05:40.383Z,14.61
2022-12-23T11:08:08.956Z,15.75
2022-12-23T11:10:35.617Z,14.68
2022-12-23T11:13:03.145Z,14.65
2022-12-23T11:15:29.646Z,15.60
2022-12-23T11:17:59.243Z,13.95
2022-12-23T11:20:25.795Z,13.29
2022-12-23T11:22:53.674Z,14.03
2022-12-23T11:25:31.330Z,14.38
2022-12-23T11:27:59.693Z,13.50
2022-12-23T11:30:26.817Z,15.17
2022-12-23T11:32:53.435Z,15.01
2022-12-23T11:35:29.076Z,14.89
2022-12-23T11:37:56.280Z,17.09
2022-12-23T11:40:22.716Z,15.46
2022-12-23T11:42:55.285Z,14.98
2022-12-23T11:45:23.339Z,14.62
2022-12-23T11:47:50.266Z,14.34
2022-12-23T11:50:25.805Z,15.10
2022-12-23T11:52:54.865Z,15.46
2022-12-23T11:55:25.455Z,14.93
2022-12-23T11:57:52.298Z,15.10
2022-12-23T12:00:21.107Z,15.05
2022-12-23T12:02:50.350Z,15.13
2022-12-23T12:05:22.736Z,15.06
2022-12-23T12:07:49.985Z,14.96
2022-12-23T12:10:22.083Z,14.70
2022-12-23T12:12:54.812Z,14.44
2022-12-23T12:15:24.378Z,14.86
2022-12-23T12:17:52.247Z,15.07
2022-12-23T12:20:31.381Z,15.51
2022-12-23T12:23:02.250Z,15.77
2022-12-23T12:25:48.045Z,15.41
2022-12-23T12:28:21.038Z,15.11
2022-12-23T12:30:50.707Z,15.38
2022-12-23T12:33:29.258Z,15.56
2022-12-23T12:36:13.723Z,15.37
2022-12-23T12:38:40.303Z,14.46
2022-12-23T12:41:18.836Z,15.39
2022-12-23T12:43:51.229Z,14.65
2022-12-23T12:46:20.641Z,14.48
2022-12-23T12:48:48.875Z,13.32
2022-12-23T12:51:21.350Z,13.93
2022-12-23T12:53:54.775Z,14.00
2022-12-23T12:56:32.824Z,14.49
2022-12-23T12:58:59.425Z,13.54
2022-12-23T13:01:28.791Z,13.93
2022-12-23T13:04:12.393Z,13.95
2022-12-23T13:06:41.899Z,14.00
2022-12-23T13:09:23.727Z,13.41
2022-12-23T13:11:55.552Z,12.39
2022-12-23T13:14:36.691Z,13.39
2022-12-23T13:17:09.216Z,12.40
2022-12-23T13:19:45.363Z,11.79
2022-12-23T13:22:24.607Z,11.93
2022-12-23T13:25:09.967Z,12.84
2022-12-23T13:27:39.380Z,13.35
2022-12-23T13:30:14.634Z,13.04
2022-12-23T13:32:50.117Z,13.25
2022-12-23T13:35:30.341Z,12.20
2022-12-23T13:38:06.065Z,12.87
2022-12-23T13:40:44.993Z,12.27
2022-12-23T13:43:22.544Z,11.76
2022-12-23T13:45:50.299Z,12.15
2022-12-23T13:48:36.946Z,11.62
2022-12-23T13:51:06.455Z,11.77
2022-12-23T13:53:44.995Z,11.43
2022-12-23T13:56:14.239Z,12.20
2022-12-23T13:58:49.785Z,11.98
2022-12-23T14:01:16.290Z,12.04
2022-12-23T14:03:43.261Z,11.44
2022-12-23T14:06:42.365Z,11.40
2022-12-23T14:09:12.467Z,11.10
2022-12-23T14:11:39.042Z,10.52
2022-12-23T14:14:07.020Z,10.63
2022-12-23T14:16:48.775Z,10.80
2022-12-23T14:19:15.231Z,10.13
2022-12-23T14:21:47.581Z,9.66
2022-12-23T14:24:36.868Z,9.80
2022-12-23T14:27:22.430Z,10.24
2022-12-23T14:30:08.473Z,10.13
2022-12-23T14:32:44.291Z,9.90
2022-12-23T14:35:10.796Z,9.66
2022-12-23T14:37:37.311Z,9.76
2022-12-23T14:40:22.716Z,9.72
2022-12-23T14:42:50.365Z,9.80
2022-12-23T14:45:29.580Z,9.63
2022-12-23T14:47:56.148Z,8.75
2022-12-23T14:50:37.004Z,8.99
2022-12-23T14:53:35.844Z,8.95
2022-12-23T14:56:11.366Z,8.71
2022-12-23T14:58:56.252Z,8.64
2022-12-23T15:01:41.676Z,8.61
2022-12-23T15:04:14.842Z,8.38
2022-12-23T15:06:46.396Z,8.61
2022-12-23T15:09:30.802Z,8.38
2022-12-23T15:12:02.086Z,8.20
2022-12-23T15:14:31.427Z,7.64
2022-12-23T15:16:58.284Z,7.34
2022-12-23T15:19:26.341Z,7.52
2022-12-23T15:22:13.530Z,7.58
2022-12-23T15:24:46.245Z,7.78
2022-12-23T15:27:27.217Z,7.74
2022-12-23T15:29:54.546Z,7.77
2022-12-23T15:32:22.379Z,7.66
2022-12-23T15:34:49.736Z,7.47
2022-12-23T15:37:24.841Z,7.57
2022-12-23T15:39:57.247Z,7.55
2022-12-23T15:42:35.435Z,7.67
2022-12-23T15:45:14.193Z,7.68
2022-12-23T15:47:42.953Z,7.62
2022-12-23T15:50:13.473Z,7.62
2022-12-23T15:52:41.219Z,7.70
2022-12-23T15:55:23.047Z,7.40
2022-12-23T15:57:50.999Z,7.36
2022-12-23T16:00:29.083Z,7.44
2022-12-23T16:03:02.264Z,7.41
2022-12-23T16:05:34.371Z,7.51
2022-12-23T16:08:30.675Z,7.60
2022-12-23T16:11:03.311Z,7.58
2022-12-23T16:13:29.987Z,7.64
2022-12-23T16:16:16.567Z,7.75
2022-12-23T16:18:47.295Z,7.71
2022-12-23T16:21:14.778Z,7.47
2022-12-23T16:23:43.901Z,7.76
2022-12-23T16:26:10.906Z,7.69
2022-12-23T16:28:42.128Z,7.57
2022-12-23T16:31:09.768Z,7.62
2022-12-23T16:33:42.717Z,7.54
2022-12-23T16:36:18.427Z,7.43
2022-12-23T16:38:45.400Z,7.55
2022-12-23T16:41:11.848Z,7.76
2022-12-23T16:43:38.269Z,7.72
2022-12-23T16:46:05.709Z,7.61
2022-12-23T16:48:34.387Z,7.51
2022-12-23T16:51:01.946Z,7.46
2022-12-23T16:53:28.385Z,7.50
2022-12-23T16:56:00.181Z,7.54
2022-12-23T16:58:27.412Z,7.54
2022-12-23T17:00:54.055Z,7.90
2022-12-23T17:03:20.670Z,7.60
2022-12-23T17:05:47.683Z,7.54
2022-12-23T17:08:14.352Z,7.37
2022-12-23T17:10:41.526Z,7.42
2022-12-23T17:13:10.417Z,7.42
2022-12-23T17:15:36.850Z,7.43
2022-12-23T17:18:03.442Z,7.48
2022-12-23T17:20:30.543Z,7.40
2022-12-23T17:22:59.459Z,7.49
2022-12-23T17:25:26.731Z,7.80
2022-12-23T17:27:53.623Z,7.60
2022-12-23T17:30:23.852Z,7.50
2022-12-23T17:32:57.648Z,7.60
2022-12-23T17:35:25.055Z,7.50
2022-12-23T17:37:52.194Z,7.47
2022-12-23T17:40:19.079Z,7.44
2022-12-23T17:42:46.041Z,7.43
2022-12-23T17:45:22.522Z,7.55
2022-12-23T17:47:49.016Z,7.44
2022-12-23T17:50:15.440Z,7.24
2022-12-23T17:52:41.935Z,7.22
2022-12-23T17:55:20.436Z,7.38
2022-12-23T17:57:46.890Z,7.66
2022-12-23T18:00:13.717Z,7.75
2022-12-23T18:02:40.750Z,7.92
2022-12-23T18:05:16.036Z,7.56
2022-12-23T18:07:42.447Z,7.48
2022-12-23T18:10:09.582Z,7.55
2022-12-23T18:12:38.079Z,7.49
2022-12-23T18:15:05.607Z,7.90
2022-12-23T18:17:32.156Z,8.47
2022-12-23T18:19:58.640Z,7.89
2022-12-23T18:22:26.576Z,8.32
2022-12-23T18:24:58.894Z,8.16
2022-12-23T18:27:25.899Z,7.96
2022-12-23T18:29:52.382Z,7.90
2022-12-23T18:32:26.588Z,7.95
2022-12-23T18:34:54.108Z,7.85
2022-12-23T18:37:21.235Z,8.20
2022-12-23T18:39:48.104Z,8.07
2022-12-23T18:42:16.481Z,7.96
2022-12-23T18:44:43.881Z,8.05
2022-12-23T18:47:10.486Z,8.43
2022-12-23T18:49:37.412Z,8.24
2022-12-23T18:52:07.107Z,8.06
2022-12-23T18:54:33.987Z,7.98
2022-12-23T18:57:01.372Z,7.97
2022-12-23T18:59:30.167Z,8.23
2022-12-23T19:01:57.551Z,8.11
2022-12-23T19:04:24.422Z,8.16
2022-12-23T19:06:50.917Z,8.17
2022-12-23T19:09:21.020Z,7.97
2022-12-23T19:11:48.678Z,7.74
2022-12-23T19:14:15.275Z,7.82
2022-12-23T19:16:44.832Z,7.85
2022-12-23T19:19:15.849Z,7.96
2022-12-23T19:21:42.285Z,8.12
2022-12-23T19:24:08.741Z,8.11
2022-12-23T19:26:35.191Z,8.19
2022-12-23T19:29:01.699Z,8.35
2022-12-23T19:31:29.838Z,8.28
2022-12-23T19:33:56.391Z,8.17
2022-12-23T19:36:23.150Z,8.13
2022-12-23T19:38:49.695Z,8.09
2022-12-23T19:41:16.428Z,7.95
2022-12-23T19:43:44.269Z,7.81
2022-12-23T19:46:11.455Z,7.94
2022-12-23T19:48:38.218Z,7.92
2022-12-23T19:51:06.322Z,7.48
2022-12-23T19:53:33.357Z,7.37
2022-12-23T19:56:00.919Z,7.39
2022-12-23T19:58:28.087Z,7.32
2022-12-23T20:01:04.808Z,7.40
2022-12-23T20:03:31.334Z,7.63
2022-12-23T20:05:57.796Z,7.72
2022-12-23T20:08:24.236Z,7.36
2022-12-23T20:10:50.698Z,7.40
2022-12-23T20:13:17.120Z,7.32
2022-12-23T20:15:43.611Z,7.34
2022-12-23T20:18:10.122Z,7.26
2022-12-23T20:20:37.642Z,7.52
2022-12-23T20:23:04.110Z,7.43
2022-12-23T20:25:30.552Z,7.33
2022-12-23T20:27:56.984Z,7.21
2022-12-23T20:30:23.480Z,7.19
2022-12-23T20:32:49.897Z,7.60
2022-12-23T20:35:16.360Z,7.45
2022-12-23T20:37:42.830Z,7.44
2022-12-23T20:40:10.378Z,7.37
2022-12-23T20:42:36.883Z,7.21
2022-12-23T20:45:03.433Z,7.30
2022-12-23T20:47:29.869Z,7.53
2022-12-23T20:49:56.397Z,7.22
2022-12-23T20:52:22.860Z,7.21
2022-12-23T20:54:49.424Z,7.24
2022-12-23T20:57:15.894Z,7.19
2022-12-23T20:59:42.320Z,7.25
2022-12-23T21:02:13.214Z,7.15
2022-12-23T21:04:39.804Z,7.52
2022-12-23T21:07:06.286Z,7.53
2022-12-23T21:09:33.066Z,7.35
2022-12-23T21:11:59.544Z,7.42
2022-12-23T21:14:26.005Z,7.42
2022-12-23T21:16:52.878Z,7.35
2022-12-23T21:19:21.148Z,7.51
2022-12-23T21:21:47.850Z,7.40
2022-12-23T21:24:14.544Z,7.23
2022-12-23T21:26:41.075Z,7.03
2022-12-23T21:29:08.724Z,6.79
2022-12-23T21:31:36.288Z,6.80
2022-12-23T21:34:03.086Z,6.91
2022-12-23T21:36:31.441Z,6.81
2022-12-23T21:38:58.600Z,6.68
2022-12-23T21:41:29.717Z,6.71
2022-12-23T21:43:57.158Z,6.79
2022-12-23T21:46:24.125Z,6.62
2022-12-23T21:48:51.227Z,6.52
2022-12-23T21:51:19.199Z,6.50
2022-12-23T21:53:46.968Z,6.54
2022-12-23T21:56:14.906Z,6.38
2022-12-23T21:58:41.408Z,6.31
2022-12-23T22:01:08.741Z,6.40
2022-12-23T22:03:35.639Z,6.37
2022-12-23T22:06:10.698Z,6.15
2022-12-23T22:08:37.738Z,6.14
2022-12-23T22:11:08.455Z,6.16
2022-12-23T22:13:35.096Z,5.99
2022-12-23T22:16:01.641Z,5.95
2022-12-23T22:18:28.112Z,6.28
2022-12-23T22:20:54.691Z,6.08
2022-12-23T22:23:21.132Z,6.01
2022-12-23T22:25:53.819Z,5.83
2022-12-23T22:28:20.358Z,5.69
2022-12-23T22:30:47.045Z,6.02
2022-12-23T22:33:13.963Z,5.99
2022-12-23T22:35:40.687Z,5.94
2022-12-23T22:38:07.354Z,5.95
2022-12-23T22:40:34.682Z,5.95
2022-12-23T22:43:01.101Z,5.76
2022-12-23T22:45:27.624Z,5.74
2022-12-23T22:47:54.150Z,5.82
2022-12-23T22:50:20.564Z,5.99
2022-12-23T22:52:47.032Z,6.52
2022-12-23T22:55:13.499Z,6.35
2022-12-23T22:57:39.923Z,6.50
2022-12-23T23:00:12.334Z,6.16
2022-12-23T23:02:39.323Z,5.95
2022-12-23T23:05:12.327Z,6.30
2022-12-23T23:07:39.659Z,6.38
2022-12-23T23:10:06.425Z,6.09
2022-12-23T23:12:32.899Z,5.76
2022-12-23T23:14:59.377Z,5.74
2022-12-23T23:17:26.989Z,5.70
2022-12-23T23:19:53.656Z,5.60
2022-12-23T23:22:21.919Z,5.57
2022-12-23T23:24:48.792Z,5.52
2022-12-23T23:27:15.636Z,5.72
2022-12-23T23:29:42.172Z,5.58
2022-12-23T23:32:08.837Z,5.56
2022-12-23T23:34:35.397Z,6.04
2022-12-23T23:37:01.907Z,5.49
2022-12-23T23:39:28.459Z,5.46
2022-12-23T23:41:54.984Z,5.49
2022-12-23T23:44:21.502Z,5.45
2022-12-23T23:46:48.155Z,4.96
2022-12-23T23:49:14.663Z,5.07
2022-12-23T23:51:44.077Z,5.01
2022-12-23T23:54:10.690Z,5.00
2022-12-23T23:56:39.082Z,4.91
2022-12-23T23:59:05.807Z,4.86
